createdAt,value
2018-03-26T00:00:09.061Z,52.00
2018-03-26T00:02:36.917Z,52.00
2018-03-26T00:05:04.769Z,52.20
2018-03-26T00:07:32.618Z,52.10
2018-03-26T00:10:00.472Z,52.10
2018-03-26T00:12:28.222Z,52.20
2018-03-26T00:14:56.070Z,52.00
2018-03-26T00:17:23.820Z,52.20
2018-03-26T00:19:51.571Z,53.00
2018-03-26T00:22:19.430Z,52.20
2018-03-26T00:24:47.273Z,52.20
2018-03-26T00:27:15.152Z,52.20
2018-03-26T00:29:43.798Z,52.50
2018-03-26T00:32:11.577Z,52.50
2018-03-26T00:34:40.221Z,52.90
2018-03-26T00:37:08.068Z,52.80
2018-03-26T00:39:35.827Z,53.00
2018-03-26T00:42:03.671Z,52.90
2018-03-26T00:44:31.420Z,53.00
2018-03-26T00:46:59.272Z,53.20
2018-03-26T00:49:27.022Z,53.30
2018-03-26T00:51:54.771Z,53.50
2018-03-26T00:54:22.628Z,53.80
2018-03-26T00:56:50.379Z,53.70
2018-03-26T00:59:18.943Z,53.90
2018-03-26T01:01:46.792Z,53.80
2018-03-26T01:04:14.644Z,53.60
2018-03-26T01:06:42.394Z,53.50
2018-03-26T01:09:10.114Z,53.60
2018-03-26T01:11:38.001Z,53.90
2018-03-26T01:14:05.849Z,53.60
2018-03-26T01:16:33.702Z,54.00
2018-03-26T01:19:01.559Z,53.30
2018-03-26T01:21:29.403Z,53.40
2018-03-26T01:23:57.256Z,53.30
2018-03-26T01:26:25.107Z,53.40
2018-03-26T01:28:52.882Z,53.60
2018-03-26T01:31:21.528Z,53.70
2018-03-26T01:33:49.278Z,54.40
2018-03-26T01:36:17.128Z,53.60
2018-03-26T01:38:44.980Z,53.60
2018-03-26T01:41:12.730Z,53.80
2018-03-26T01:43:40.580Z,54.00
2018-03-26T01:46:08.432Z,54.10
2018-03-26T01:48:36.286Z,54.20
2018-03-26T01:51:04.144Z,54.30
2018-03-26T01:53:31.991Z,55.10
2018-03-26T01:55:59.983Z,54.10
2018-03-26T01:58:27.795Z,54.10
2018-03-26T02:00:55.589Z,54.00
2018-03-26T02:03:23.398Z,54.10
2018-03-26T02:05:51.248Z,54.10
2018-03-26T02:08:19.000Z,54.20
2018-03-26T02:10:46.748Z,54.40
2018-03-26T02:13:14.598Z,54.50
2018-03-26T02:15:42.347Z,54.70
2018-03-26T02:18:10.201Z,54.70
2018-03-26T02:20:38.060Z,54.80
2018-03-26T02:23:05.907Z,54.70
2018-03-26T02:25:33.655Z,54.80
2018-03-26T02:28:01.448Z,55.00
2018-03-26T02:30:29.259Z,55.10
2018-03-26T02:32:57.110Z,55.00
2018-03-26T02:35:24.960Z,55.10
2018-03-26T02:37:52.650Z,55.10
2018-03-26T02:40:20.458Z,55.20
2018-03-26T02:42:48.213Z,55.20
2018-03-26T02:45:15.938Z,54.80
2018-03-26T02:47:43.619Z,55.20
2018-03-26T02:50:12.164Z,55.80
2018-03-26T02:52:39.894Z,55.20
2018-03-26T02:55:07.674Z,55.30
2018-03-26T02:57:35.527Z,55.20
2018-03-26T03:00:03.377Z,55.10
2018-03-26T03:02:31.229Z,55.20
2018-03-26T03:04:58.979Z,56.00
2018-03-26T03:07:26.668Z,55.40
2018-03-26T03:09:54.477Z,55.50
2018-03-26T03:12:22.225Z,55.50
2018-03-26T03:14:50.078Z,55.40
2018-03-26T03:17:17.928Z,55.40
2018-03-26T03:19:45.781Z,55.50
2018-03-26T03:22:13.531Z,55.50
2018-03-26T03:24:41.278Z,55.40
2018-03-26T03:27:09.135Z,55.30
2018-03-26T03:29:36.995Z,55.30
2018-03-26T03:32:04.787Z,55.10
2018-03-26T03:34:32.689Z,55.10
2018-03-26T03:37:00.409Z,55.10
2018-03-26T03:39:28.190Z,54.90
2018-03-26T03:41:56.039Z,54.70
2018-03-26T03:44:23.890Z,54.70
2018-03-26T03:46:51.743Z,54.70
2018-03-26T03:49:19.593Z,54.50
2018-03-26T03:51:47.446Z,54.40
2018-03-26T03:54:15.299Z,54.30
2018-03-26T03:56:43.046Z,54.30
2018-03-26T03:59:10.796Z,54.40
2018-03-26T04:01:38.753Z,54.40
2018-03-26T04:04:06.502Z,54.40
2018-03-26T04:06:34.266Z,54.40
2018-03-26T04:09:02.103Z,54.20
2018-03-26T04:11:29.956Z,53.60
2018-03-26T04:13:57.646Z,54.20
2018-03-26T04:16:25.455Z,54.30
2018-03-26T04:18:53.305Z,54.20
2018-03-26T04:21:21.156Z,54.20
2018-03-26T04:23:49.007Z,54.20
2018-03-26T04:26:16.758Z,54.10
2018-03-26T04:28:44.610Z,54.10
2018-03-26T04:31:12.358Z,54.00
2018-03-26T04:33:40.936Z,53.80
2018-03-26T04:36:08.780Z,53.90
2018-03-26T04:38:36.530Z,53.70
2018-03-26T04:41:04.381Z,53.70
2018-03-26T04:43:32.072Z,53.70
2018-03-26T04:45:59.883Z,53.80
2018-03-26T04:48:27.731Z,53.80
2018-03-26T04:50:55.586Z,54.10
2018-03-26T04:53:23.436Z,54.10
2018-03-26T04:55:51.337Z,54.10
2018-03-26T04:58:19.143Z,54.00
2018-03-26T05:00:46.824Z,53.90
2018-03-26T05:03:14.637Z,53.80
2018-03-26T05:05:42.488Z,53.70
2018-03-26T05:08:10.343Z,53.80
2018-03-26T05:10:38.207Z,53.60
2018-03-26T05:13:06.049Z,53.50
2018-03-26T05:15:33.928Z,53.50
2018-03-26T05:18:02.569Z,53.60
2018-03-26T05:20:32.249Z,53.60
2018-03-26T05:23:00.832Z,53.60
2018-03-26T05:25:28.683Z,53.30
2018-03-26T05:27:56.385Z,53.10
2018-03-26T05:30:24.184Z,53.10
2018-03-26T05:32:51.976Z,53.20
2018-03-26T05:35:19.889Z,53.20
2018-03-26T05:37:47.640Z,53.50
2018-03-26T05:40:15.488Z,53.50
2018-03-26T05:42:43.339Z,54.20
2018-03-26T05:45:11.191Z,53.90
2018-03-26T05:47:39.041Z,53.90
2018-03-26T05:50:06.896Z,53.90
2018-03-26T05:52:34.749Z,54.00
2018-03-26T05:55:02.599Z,54.30
2018-03-26T05:57:30.451Z,54.50
2018-03-26T05:59:58.315Z,54.60
2018-03-26T06:02:26.155Z,54.70
2018-03-26T06:04:54.007Z,54.90
2018-03-26T06:07:21.860Z,55.00
2018-03-26T06:09:49.709Z,55.00
2018-03-26T06:12:17.561Z,55.10
2018-03-26T06:14:45.412Z,55.20
2018-03-26T06:17:15.108Z,55.50
2018-03-26T06:19:42.959Z,55.50
2018-03-26T06:22:10.812Z,55.80
2018-03-26T06:24:38.561Z,55.90
2018-03-26T06:27:06.414Z,56.00
2018-03-26T06:29:34.266Z,56.10
2018-03-26T06:32:02.119Z,56.10
2018-03-26T06:34:29.971Z,55.90
2018-03-26T06:40:07.194Z,55.60
2018-03-26T06:42:34.998Z,55.60
2018-03-26T06:45:02.846Z,55.60
2018-03-26T06:47:30.596Z,55.40
2018-03-26T06:49:58.345Z,55.00
2018-03-26T06:52:26.198Z,54.70
2018-03-26T06:54:54.049Z,54.60
2018-03-26T06:57:21.902Z,54.40
2018-03-26T06:59:49.651Z,54.20
2018-03-26T07:02:17.546Z,53.90
2018-03-26T07:04:45.351Z,53.70
2018-03-26T07:07:13.206Z,53.50
2018-03-26T07:09:40.935Z,52.90
2018-03-26T07:12:08.804Z,52.90
2018-03-26T07:14:36.658Z,52.50
2018-03-26T07:17:04.411Z,52.60
2018-03-26T07:19:32.259Z,52.40
2018-03-26T07:22:00.009Z,52.20
2018-03-26T07:24:27.861Z,52.60
2018-03-26T07:26:55.714Z,52.60
2018-03-26T07:29:23.462Z,52.30
2018-03-26T07:31:51.313Z,53.30
2018-03-26T07:34:19.036Z,52.90
2018-03-26T07:36:46.813Z,52.90
2018-03-26T07:39:14.562Z,52.80
2018-03-26T07:41:42.413Z,53.10
2018-03-26T07:44:10.162Z,53.40
2018-03-26T07:46:37.914Z,53.50
2018-03-26T07:49:05.766Z,53.70
2018-03-26T07:51:33.452Z,53.10
2018-03-26T07:54:01.988Z,52.60
2018-03-26T07:56:29.836Z,52.50
2018-03-26T07:58:57.583Z,52.40
2018-03-26T08:01:25.432Z,52.30
2018-03-26T08:03:53.183Z,52.20
2018-03-26T08:06:20.932Z,52.00
2018-03-26T08:08:48.784Z,52.00
2018-03-26T08:11:16.532Z,52.20
2018-03-26T08:13:44.364Z,52.20
2018-03-26T08:16:12.236Z,51.80
2018-03-26T08:18:39.986Z,51.30
2018-03-26T08:21:07.842Z,50.90
2018-03-26T08:23:35.694Z,50.70
2018-03-26T08:26:03.547Z,51.00
2018-03-26T08:28:31.228Z,51.80
2018-03-26T08:30:59.782Z,51.90
2018-03-26T08:33:27.610Z,51.80
2018-03-26T08:35:55.332Z,52.60
2018-03-26T08:38:23.215Z,51.30
2018-03-26T08:40:51.064Z,50.80
2018-03-26T08:43:18.779Z,51.00
2018-03-26T08:45:46.562Z,50.70
2018-03-26T08:48:14.313Z,50.00
2018-03-26T08:50:42.165Z,49.80
2018-03-26T08:53:10.015Z,50.30
2018-03-26T08:55:37.870Z,50.40
2018-03-26T08:58:05.724Z,51.30
2018-03-26T09:00:33.578Z,51.70
2018-03-26T09:03:01.308Z,51.30
2018-03-26T09:05:28.990Z,50.10
2018-03-26T09:07:57.638Z,49.80
2018-03-26T09:10:25.396Z,49.70
2018-03-26T09:12:53.345Z,49.50
2018-03-26T09:15:21.195Z,49.40
2018-03-26T09:17:48.942Z,49.60
2018-03-26T09:20:16.803Z,49.60
2018-03-26T09:22:46.285Z,49.60
2018-03-26T09:25:14.041Z,49.40
2018-03-26T09:27:41.891Z,49.00
2018-03-26T09:30:09.745Z,48.80
2018-03-26T09:32:37.593Z,48.40
2018-03-26T09:35:05.446Z,48.20
2018-03-26T09:37:33.195Z,48.20
2018-03-26T09:40:01.047Z,47.90
2018-03-26T09:42:28.799Z,48.20
2018-03-26T09:44:56.646Z,48.00
2018-03-26T09:47:24.499Z,47.60
2018-03-26T09:49:52.351Z,47.10
2018-03-26T09:52:20.203Z,46.90
2018-03-26T09:54:48.155Z,47.60
2018-03-26T09:57:16.008Z,47.80
2018-03-26T09:59:43.858Z,47.60
2018-03-26T10:02:11.609Z,48.70
2018-03-26T10:04:39.461Z,48.00
2018-03-26T10:07:07.323Z,47.80
2018-03-26T10:09:35.169Z,48.40
2018-03-26T10:12:03.018Z,49.40
2018-03-26T10:14:32.023Z,50.80
2018-03-26T10:16:59.950Z,52.00
2018-03-26T10:19:27.831Z,51.50
2018-03-26T10:21:56.474Z,49.30
2018-03-26T10:24:24.222Z,49.30
2018-03-26T10:26:52.074Z,47.20
2018-03-26T10:29:19.766Z,47.80
2018-03-26T10:31:47.572Z,47.60
2018-03-26T10:34:15.424Z,48.50
2018-03-26T10:36:43.275Z,47.30
2018-03-26T10:39:11.012Z,47.60
2018-03-26T10:41:38.981Z,48.00
2018-03-26T10:44:06.655Z,48.20
2018-03-26T10:46:35.199Z,49.60
2018-03-26T10:49:03.052Z,49.50
2018-03-26T10:51:30.900Z,50.10
2018-03-26T10:53:58.751Z,49.60
2018-03-26T10:56:26.603Z,49.00
2018-03-26T10:58:54.455Z,50.70
2018-03-26T11:01:22.176Z,48.50
2018-03-26T11:03:49.963Z,48.20
2018-03-26T11:06:17.805Z,47.90
2018-03-26T11:08:45.556Z,49.60
2018-03-26T11:11:13.408Z,51.30
2018-03-26T11:13:41.362Z,51.80
2018-03-26T11:16:09.520Z,51.60
2018-03-26T11:18:37.271Z,48.40
2018-03-26T11:21:05.124Z,49.90
2018-03-26T11:23:32.992Z,48.80
2018-03-26T11:26:01.651Z,46.80
2018-03-26T11:28:29.337Z,46.80
2018-03-26T11:30:57.081Z,48.00
2018-03-26T11:33:25.716Z,48.70
2018-03-26T11:35:53.564Z,48.60
2018-03-26T11:38:21.416Z,50.50
2018-03-26T11:40:49.209Z,51.20
2018-03-26T11:43:17.119Z,51.20
2018-03-26T11:45:45.073Z,50.50
2018-03-26T11:48:12.927Z,50.50
2018-03-26T11:50:40.879Z,50.40
2018-03-26T11:53:08.834Z,50.70
2018-03-26T11:55:36.585Z,50.40
2018-03-26T11:58:04.458Z,49.70
2018-03-26T12:00:33.109Z,50.40
2018-03-26T12:03:00.859Z,50.30
2018-03-26T12:05:28.609Z,50.50
2018-03-26T12:07:56.400Z,50.50
2018-03-26T12:10:24.214Z,48.70
2018-03-26T12:12:52.165Z,50.40
2018-03-26T12:15:20.019Z,50.00
2018-03-26T12:17:47.865Z,48.60
2018-03-26T12:20:27.492Z,51.00
2018-03-26T12:22:55.361Z,49.60
2018-03-26T12:25:24.046Z,48.30
2018-03-26T12:28:03.539Z,48.10
2018-03-26T12:30:31.393Z,48.40
2018-03-26T12:32:59.243Z,46.40
2018-03-26T12:35:38.781Z,45.40
2018-03-26T12:38:06.620Z,45.70
2018-03-26T12:40:46.347Z,47.10
2018-03-26T12:43:14.097Z,47.60
2018-03-26T12:45:53.726Z,48.00
2018-03-26T12:48:21.576Z,48.70
2018-03-26T12:51:01.306Z,49.30
2018-03-26T12:53:29.364Z,48.20
2018-03-26T12:55:57.214Z,48.00
2018-03-26T12:58:47.080Z,48.60
2018-03-26T13:01:26.911Z,48.30
2018-03-26T13:03:54.767Z,45.60
2018-03-26T13:06:22.618Z,45.20
2018-03-26T13:08:50.569Z,45.60
2018-03-26T13:11:18.421Z,45.70
2018-03-26T13:13:46.196Z,44.50
2018-03-26T13:16:14.790Z,45.20
2018-03-26T13:18:42.804Z,45.20
2018-03-26T13:21:10.648Z,44.50
2018-03-26T13:23:38.584Z,45.20
2018-03-26T13:26:06.454Z,43.80
2018-03-26T13:28:34.206Z,43.70
2018-03-26T13:31:02.055Z,42.70
2018-03-26T13:33:29.908Z,44.50
2018-03-26T13:35:57.760Z,44.00
2018-03-26T13:38:25.509Z,45.50
2018-03-26T13:40:53.361Z,44.30
2018-03-26T13:43:21.219Z,40.90
2018-03-26T13:45:49.720Z,43.00
2018-03-26T13:48:17.631Z,43.00
2018-03-26T13:50:45.381Z,45.00
2018-03-26T13:53:13.348Z,44.30
2018-03-26T13:55:41.902Z,42.90
2018-03-26T13:58:09.652Z,42.90
2018-03-26T14:00:37.376Z,45.00
2018-03-26T14:03:05.361Z,44.80
2018-03-26T14:05:33.214Z,43.40
2018-03-26T14:08:01.074Z,42.50
2018-03-26T14:10:41.612Z,41.70
2018-03-26T14:13:21.451Z,41.60
2018-03-26T14:16:01.171Z,42.50
2018-03-26T14:18:28.925Z,43.00
2018-03-26T14:20:56.772Z,43.70
2018-03-26T14:23:24.627Z,43.50
2018-03-26T14:25:52.475Z,45.60
2018-03-26T14:28:20.168Z,45.60
2018-03-26T14:30:48.075Z,44.90
2018-03-26T14:33:16.030Z,45.40
2018-03-26T14:35:44.086Z,46.60
2018-03-26T14:38:11.938Z,47.00
2018-03-26T14:40:39.791Z,47.00
2018-03-26T14:43:07.652Z,47.10
2018-03-26T14:45:35.533Z,46.70
2018-03-26T14:48:03.453Z,45.30
2018-03-26T14:50:31.204Z,44.20
2018-03-26T14:52:58.988Z,43.50
2018-03-26T14:55:27.505Z,43.30
2018-03-26T14:57:55.273Z,43.30
2018-03-26T15:00:23.118Z,43.50
2018-03-26T15:02:50.923Z,43.80
2018-03-26T15:05:18.721Z,43.80
2018-03-26T15:07:46.683Z,44.40
2018-03-26T15:10:15.152Z,43.90
2018-03-26T15:12:42.997Z,43.90
2018-03-26T15:15:10.844Z,44.00
2018-03-26T15:17:38.701Z,44.70
2018-03-26T15:20:06.551Z,45.30
2018-03-26T15:22:34.284Z,45.00
2018-03-26T15:25:02.102Z,44.50
2018-03-26T15:27:29.925Z,44.20
2018-03-26T15:29:57.852Z,44.30
2018-03-26T15:32:25.607Z,44.10
2018-03-26T15:34:53.455Z,44.20
2018-03-26T15:37:21.305Z,44.10
2018-03-26T15:39:49.161Z,44.10
2018-03-26T15:42:16.911Z,44.00
2018-03-26T15:44:44.661Z,44.30
2018-03-26T15:47:12.512Z,44.40
2018-03-26T15:49:40.374Z,44.30
2018-03-26T15:52:08.223Z,44.80
2018-03-26T15:54:35.916Z,45.30
2018-03-26T15:57:03.652Z,46.00
2018-03-26T15:59:31.463Z,46.70
2018-03-26T16:01:58.803Z,47.20
2018-03-26T16:04:26.654Z,47.70
2018-03-26T16:06:54.401Z,47.90
2018-03-26T16:09:22.254Z,48.30
2018-03-26T16:11:50.105Z,48.70
2018-03-26T16:14:17.780Z,49.40
2018-03-26T16:16:46.268Z,53.90
2018-03-26T16:19:13.970Z,53.90
2018-03-26T16:21:41.719Z,56.10
2018-03-26T16:24:09.569Z,57.20
2018-03-26T16:26:37.423Z,59.50
2018-03-26T16:29:05.320Z,61.30
2018-03-26T16:31:33.333Z,62.00
2018-03-26T16:34:01.184Z,62.20
2018-03-26T16:36:28.920Z,61.90
2018-03-26T16:38:56.686Z,61.70
2018-03-26T16:41:37.540Z,61.70
2018-03-26T16:44:05.288Z,61.50
2018-03-26T16:46:33.139Z,61.90
2018-03-26T16:49:00.992Z,62.70
2018-03-26T16:51:28.739Z,62.50
2018-03-26T16:53:56.607Z,61.30
2018-03-26T16:56:24.401Z,60.80
2018-03-26T16:58:52.196Z,59.50
2018-03-26T17:01:24.366Z,59.60
2018-03-26T17:03:52.312Z,59.50
2018-03-26T17:06:20.984Z,59.60
2018-03-26T17:08:49.646Z,59.30
2018-03-26T17:11:17.602Z,59.30
2018-03-26T17:13:45.448Z,59.40
2018-03-26T17:16:13.232Z,59.70
2018-03-26T17:18:41.156Z,59.90
2018-03-26T17:21:12.490Z,59.90
2018-03-26T17:23:40.342Z,59.20
2018-03-26T17:26:08.176Z,59.50
2018-03-26T17:28:36.150Z,59.40
2018-03-26T17:31:04.213Z,59.50
2018-03-26T17:33:32.367Z,59.60
2018-03-26T17:36:00.285Z,59.60
2018-03-26T17:38:28.273Z,59.60
2018-03-26T17:40:56.125Z,59.80
2018-03-26T17:43:23.976Z,59.20
2018-03-26T17:45:51.931Z,59.80
2018-03-26T17:48:19.786Z,59.40
2018-03-26T17:50:48.453Z,59.60
2018-03-26T17:53:16.409Z,59.60
2018-03-26T17:55:44.261Z,59.20
2018-03-26T17:58:12.120Z,58.80
2018-03-26T18:00:41.142Z,59.10
2018-03-26T18:03:09.349Z,59.10
2018-03-26T18:05:37.205Z,59.00
2018-03-26T18:08:05.976Z,59.10
2018-03-26T18:10:33.838Z,59.10
2018-03-26T18:13:01.783Z,59.20
2018-03-26T18:15:29.642Z,59.40
2018-03-26T18:17:58.306Z,59.20
2018-03-26T18:20:26.157Z,59.20
2018-03-26T18:22:54.213Z,59.20
2018-03-26T18:25:22.169Z,59.30
2018-03-26T18:27:50.020Z,59.50
2018-03-26T18:30:17.973Z,59.30
2018-03-26T18:32:46.030Z,58.90
2018-03-26T18:35:13.996Z,58.70
2018-03-26T18:37:42.655Z,59.20
2018-03-26T18:40:11.326Z,59.20
2018-03-26T18:42:39.394Z,59.20
2018-03-26T18:45:08.057Z,59.10
2018-03-26T18:47:36.112Z,59.10
2018-03-26T18:50:04.171Z,59.70
2018-03-26T18:52:32.124Z,59.20
2018-03-26T18:55:00.077Z,59.90
2018-03-26T18:57:27.928Z,59.60
2018-03-26T18:59:56.601Z,58.30
2018-03-26T19:02:24.556Z,58.20
2018-03-26T19:04:53.326Z,59.60
2018-03-26T19:07:21.128Z,59.20
2018-03-26T19:09:48.911Z,59.40
2018-03-26T19:12:16.885Z,59.50
2018-03-26T19:14:44.836Z,59.70
2018-03-26T19:17:12.790Z,59.90
2018-03-26T19:19:40.745Z,60.10
2018-03-26T19:22:09.917Z,60.00
2018-03-26T19:24:37.944Z,60.40
2018-03-26T19:27:05.840Z,60.50
2018-03-26T19:29:33.896Z,60.50
2018-03-26T19:32:01.755Z,60.50
2018-03-26T19:34:30.393Z,60.80
2018-03-26T19:36:58.268Z,60.80
2018-03-26T19:39:26.226Z,61.10
2018-03-26T19:41:54.176Z,61.30
2018-03-26T19:44:21.985Z,61.40
2018-03-26T19:46:49.983Z,61.50
2018-03-26T19:49:17.834Z,61.50
2018-03-26T19:51:45.891Z,62.10
2018-03-26T19:54:13.845Z,61.60
2018-03-26T19:56:41.695Z,61.60
2018-03-26T19:59:09.548Z,61.80
2018-03-26T20:01:37.613Z,61.80
2018-03-26T20:04:05.459Z,62.10
2018-03-26T20:06:33.416Z,62.20
2018-03-26T20:09:02.085Z,62.50
2018-03-26T20:11:29.938Z,62.30
2018-03-26T20:13:57.892Z,62.00
2018-03-26T20:16:25.741Z,61.90
2018-03-26T20:18:53.696Z,61.70
2018-03-26T20:21:21.548Z,61.60
2018-03-26T20:23:49.501Z,61.50
2018-03-26T20:26:17.355Z,61.50
2018-03-26T20:28:45.209Z,61.30
2018-03-26T20:31:13.033Z,61.30
2018-03-26T20:33:40.820Z,61.20
2018-03-26T20:36:09.452Z,60.70
2018-03-26T20:38:37.433Z,60.50
2018-03-26T20:41:05.287Z,60.20
2018-03-26T20:43:33.239Z,59.90
2018-03-26T20:46:01.194Z,59.80
2018-03-26T20:48:29.045Z,59.70
2018-03-26T20:50:56.998Z,59.60
2018-03-26T20:53:24.851Z,60.50
2018-03-26T20:55:52.781Z,59.50
2018-03-26T20:58:20.581Z,59.40
2018-03-26T21:00:48.507Z,59.00
2018-03-26T21:03:16.465Z,59.00
2018-03-26T21:05:44.315Z,59.00
2018-03-26T21:08:12.166Z,59.20
2018-03-26T21:10:40.018Z,59.10
2018-03-26T21:13:07.870Z,59.00
2018-03-26T21:15:35.799Z,58.80
2018-03-26T21:18:03.708Z,58.60
2018-03-26T21:20:31.632Z,58.30
2018-03-26T21:22:59.585Z,58.00
2018-03-26T21:25:27.542Z,59.00
2018-03-26T21:27:55.404Z,58.10
2018-03-26T21:30:24.068Z,58.00
2018-03-26T21:32:52.734Z,58.10
2018-03-26T21:35:20.584Z,57.80
2018-03-26T21:37:48.419Z,57.50
2018-03-26T21:40:16.287Z,58.00
2018-03-26T21:42:44.244Z,57.90
2018-03-26T21:45:12.197Z,58.00
2018-03-26T21:47:39.988Z,57.90
2018-03-26T21:50:07.798Z,58.00
2018-03-26T21:52:35.646Z,58.00
2018-03-26T21:55:03.497Z,57.90
2018-03-26T21:57:31.180Z,57.90
2018-03-26T21:59:59.713Z,58.20
2018-03-26T22:02:27.572Z,58.20
2018-03-26T22:04:55.416Z,58.20
2018-03-26T22:07:23.128Z,58.60
2018-03-26T22:09:50.916Z,58.90
2018-03-26T22:12:18.767Z,59.50
2018-03-26T22:14:46.617Z,59.50
2018-03-26T22:17:14.471Z,59.60
2018-03-26T22:19:42.376Z,59.70
2018-03-26T22:22:10.112Z,59.70
2018-03-26T22:24:37.864Z,59.60
2018-03-26T22:27:05.673Z,59.50
2018-03-26T22:29:33.392Z,59.60
2018-03-26T22:32:01.103Z,59.50
2018-03-26T22:34:29.740Z,59.40
2018-03-26T22:36:57.493Z,59.40
2018-03-26T22:39:25.343Z,59.30
2018-03-26T22:41:53.090Z,59.30
2018-03-26T22:44:20.942Z,59.20
2018-03-26T22:46:48.695Z,59.30
2018-03-26T22:49:16.547Z,59.20
2018-03-26T22:51:44.295Z,59.30
2018-03-26T22:54:12.146Z,60.00
2018-03-26T22:56:39.996Z,59.60
2018-03-26T22:59:07.850Z,59.50
2018-03-26T23:01:35.600Z,59.30
2018-03-26T23:04:03.349Z,59.30
2018-03-26T23:06:31.303Z,59.20
2018-03-26T23:08:59.054Z,59.00
2018-03-26T23:11:26.903Z,59.00
2018-03-26T23:13:54.653Z,59.00
2018-03-26T23:16:22.506Z,59.10
2018-03-26T23:18:50.257Z,59.00
2018-03-26T23:21:18.107Z,59.20
2018-03-26T23:23:45.855Z,59.30
2018-03-26T23:26:13.707Z,59.20
2018-03-26T23:28:41.558Z,59.20
2018-03-26T23:31:09.306Z,59.10
2018-03-26T23:33:37.163Z,59.10
2018-03-26T23:36:05.013Z,58.90
2018-03-26T23:38:32.763Z,59.00
2018-03-26T23:41:00.615Z,58.80
2018-03-26T23:43:28.474Z,58.80
2018-03-26T23:45:56.256Z,58.90
2018-03-26T23:48:24.068Z,58.40
2018-03-26T23:50:51.816Z,58.50
2018-03-26T23:53:19.670Z,58.60
2018-03-26T23:55:47.417Z,58.40
2018-03-26T23:58:15.270Z,58.20
